Time;durP1;ratioP1;P1;durP2;ratioP2;P2;SDS_P1;SDS_P2;PMS_P1;PMS_P2;Temp;Humidity;BMP_temperature;BMP_pressure;BME280_temperature;BME280_humidity;BME280_pressure;Samples;Min_cycle;Max_cycle;Signal;HPM_P1;HPM_P2
2022/08/04 00:02:22;;;;;;;2.67;1.70;;;;;;;;;;5021370;28;20495;-70
2022/08/04 00:05:03;;;;;;;1.98;1.73;;;;;;;;;;5039958;28;20111;-70
2022/08/04 00:07:51;;;;;;;3.10;1.75;;;;;;;;;;5021350;28;20045;-72
2022/08/04 00:10:17;;;;;;;1.80;1.70;;;;;;;;;;5039223;28;20462;-69
2022/08/04 00:12:46;;;;;;;1.85;1.63;;;;;;;;;;5039494;28;20049;-70
2022/08/04 00:15:14;;;;;;;1.65;1.55;;;;;;;;;;5040087;28;20052;-70
2022/08/04 00:17:49;;;;;;;1.80;1.70;;;;;;;;;;5042748;28;20053;-70
2022/08/04 00:20:19;;;;;;;2.88;1.85;;;;;;;;;;5042989;28;20052;-73
2022/08/04 00:22:46;;;;;;;3.40;1.77;;;;;;;;;;5043486;28;20207;-68
2022/08/04 00:25:12;;;;;;;3.97;1.92;;;;;;;;;;5043888;28;20048;-69
2022/08/04 00:27:37;;;;;;;2.83;1.98;;;;;;;;;;5014914;28;20053;-70
2022/08/04 00:30:05;;;;;;;1.98;1.77;;;;;;;;;;5043981;28;20051;-70
2022/08/04 00:32:31;;;;;;;3.63;1.98;;;;;;;;;;5042313;28;20063;-70
2022/08/04 00:34:58;;;;;;;2.20;2.00;;;;;;;;;;5043817;28;20049;-70
2022/08/04 00:37:25;;;;;;;3.75;2.00;;;;;;;;;;5043126;28;20107;-70
2022/08/04 00:39:53;;;;;;;4.45;2.05;;;;;;;;;;5043657;28;20134;-70
2022/08/04 00:42:33;;;;;;;2.08;1.88;;;;;;;;;;5042464;28;20056;-70
2022/08/04 00:45:13;;;;;;;2.40;1.95;;;;;;;;;;5043352;28;20041;-70
2022/08/04 00:47:54;;;;;;;6.18;2.35;;;;;;;;;;5042692;28;20061;-70
2022/08/04 00:50:36;;;;;;;4.57;2.00;;;;;;;;;;5043543;28;20052;-70
2022/08/04 00:53:11;;;;;;;2.88;1.90;;;;;;;;;;5042974;28;20048;-70
2022/08/04 00:55:52;;;;;;;4.10;1.70;;;;;;;;;;5042119;28;20461;-70
2022/08/04 00:58:42;;;;;;;2.03;1.75;;;;;;;;;;5043419;28;20057;-70
2022/08/04 01:01:16;;;;;;;3.45;1.67;;;;;;;;;;5043287;28;20084;-70
2022/08/04 01:03:50;;;;;;;4.50;2.00;;;;;;;;;;5024514;28;20053;-70
2022/08/04 01:06:44;;;;;;;3.78;1.77;;;;;;;;;;5024670;28;20178;-70
2022/08/04 01:09:29;;;;;;;2.00;1.80;;;;;;;;;;5025097;28;20482;-70
2022/08/04 01:12:14;;;;;;;2.28;1.73;;;;;;;;;;5033977;28;20040;-70
2022/08/04 01:14:57;;;;;;;2.67;1.77;;;;;;;;;;5042756;28;20128;-70
2022/08/04 01:17:34;;;;;;;2.20;1.85;;;;;;;;;;5023865;28;20094;-70
2022/08/04 01:20:13;;;;;;;2.42;2.20;;;;;;;;;;5042889;28;20115;-70
2022/08/04 01:23:16;;;;;;;2.15;1.95;;;;;;;;;;5042402;28;20110;-70
2022/08/04 01:25:45;;;;;;;2.97;1.92;;;;;;;;;;5042309;28;20041;-70
2022/08/04 01:28:10;;;;;;;7.60;1.83;;;;;;;;;;5024233;28;20046;-70
2022/08/04 01:30:41;;;;;;;3.88;1.90;;;;;;;;;;5042394;28;20048;-70
2022/08/04 01:33:13;;;;;;;2.43;2.00;;;;;;;;;;5042186;28;20514;-70
2022/08/04 01:35:55;;;;;;;3.67;2.08;;;;;;;;;;5042171;28;20053;-70
2022/08/04 01:38:27;;;;;;;2.42;1.75;;;;;;;;;;5037395;28;20055;-70
2022/08/04 01:40:55;;;;;;;4.53;1.88;;;;;;;;;;5041883;28;20713;-70
2022/08/04 01:43:23;;;;;;;1.98;1.70;;;;;;;;;;5041362;28;20056;-70
2022/08/04 01:45:51;;;;;;;1.98;1.80;;;;;;;;;;5042362;28;20049;-70
2022/08/04 01:48:23;;;;;;;2.30;2.08;;;;;;;;;;5036240;28;20051;-70
2022/08/04 01:50:52;;;;;;;2.25;2.05;;;;;;;;;;5042296;28;20499;-70
2022/08/04 01:53:19;;;;;;;2.20;2.00;;;;;;;;;;5041191;28;20059;-70
2022/08/04 01:55:48;;;;;;;2.50;2.30;;;;;;;;;;5042171;28;20049;-70
2022/08/04 01:58:17;;;;;;;3.88;2.00;;;;;;;;;;5042008;28;20742;-70
2022/08/04 02:00:55;;;;;;;2.42;2.22;;;;;;;;;;5040813;28;20044;-70
2022/08/04 02:03:20;;;;;;;4.47;2.30;;;;;;;;;;5041403;28;20045;-70
2022/08/04 02:05:49;;;;;;;4.13;2.20;;;;;;;;;;5041838;28;20051;-70
2022/08/04 02:08:36;;;;;;;3.67;2.75;;;;;;;;;;5041981;28;20045;-70
2022/08/04 02:11:20;;;;;;;6.32;2.88;;;;;;;;;;5040775;28;20051;-73
2022/08/04 02:14:01;;;;;;;4.28;2.40;;;;;;;;;;4998704;28;20140;-72
2022/08/04 02:16:49;;;;;;;3.28;2.35;;;;;;;;;;5041741;28;20068;-70
2022/08/04 02:19:32;;;;;;;3.42;2.33;;;;;;;;;;5041746;28;20159;-70
2022/08/04 02:22:14;;;;;;;4.85;2.33;;;;;;;;;;4991318;28;20041;-73
2022/08/04 02:24:45;;;;;;;3.95;2.15;;;;;;;;;;5041022;28;20076;-72
2022/08/04 02:27:13;;;;;;;3.80;2.20;;;;;;;;;;5041713;28;20045;-71
2022/08/04 02:29:45;;;;;;;3.67;2.13;;;;;;;;;;5023019;28;20378;-70
2022/08/04 02:32:24;;;;;;;4.72;2.33;;;;;;;;;;5040254;28;20044;-71
2022/08/04 02:34:57;;;;;;;3.15;2.20;;;;;;;;;;5041094;28;20509;-73
2022/08/04 02:37:25;;;;;;;2.67;2.47;;;;;;;;;;5040884;28;20106;-72
2022/08/04 02:39:52;;;;;;;3.15;2.58;;;;;;;;;;5040466;28;20052;-73
2022/08/04 02:42:18;;;;;;;3.00;2.67;;;;;;;;;;5040813;28;20102;-70
2022/08/04 02:44:50;;;;;;;4.85;2.67;;;;;;;;;;5040634;28;20118;-74
2022/08/04 02:47:19;;;;;;;;;;;;;;;;;;5041349;28;20048;-69
2022/08/04 02:49:46;;;;;;;6.13;2.42;;;;;;;;;;5040981;28;20437;-73
2022/08/04 02:52:13;;;;;;;4.28;2.40;;;;;;;;;;5040848;28;20053;-71
2022/08/04 02:54:40;;;;;;;5.00;2.60;;;;;;;;;;5039700;28;20268;-70
2022/08/04 02:57:10;;;;;;;5.15;2.55;;;;;;;;;;5041110;28;20053;-71
2022/08/04 02:59:58;;;;;;;2.55;2.33;;;;;;;;;;5040559;28;20107;-70
2022/08/04 03:02:58;;;;;;;6.78;2.33;;;;;;;;;;5040597;28;20507;-73
2022/08/04 03:05:37;;;;;;;5.07;2.60;;;;;;;;;;5007658;28;20131;-71
2022/08/04 03:08:24;;;;;;;4.80;2.40;;;;;;;;;;5040356;28;20449;-73
2022/08/04 03:11:11;;;;;;;4.07;2.40;;;;;;;;;;5040842;28;20037;-70
2022/08/04 03:13:45;;;;;;;4.55;2.50;;;;;;;;;;5038960;28;20060;-71
2022/08/04 03:16:29;;;;;;;3.90;2.75;;;;;;;;;;5039782;28;21263;-70
2022/08/04 03:19:23;;;;;;;3.30;2.50;;;;;;;;;;5040551;28;20067;-71
2022/08/04 03:22:24;;;;;;;3.15;2.28;;;;;;;;;;5021483;28;20055;-74
2022/08/04 03:25:13;;;;;;;4.25;2.83;;;;;;;;;;5040436;28;20098;-72
2022/08/04 03:27:50;;;;;;;5.78;2.50;;;;;;;;;;5038925;28;20132;-70
2022/08/04 03:30:34;;;;;;;2.70;2.50;;;;;;;;;;5039811;28;20041;-70
2022/08/04 03:33:05;;;;;;;4.70;2.42;;;;;;;;;;5039920;28;20053;-70
2022/08/04 03:35:59;;;;;;;3.05;2.50;;;;;;;;;;5039715;28;20098;-70
2022/08/04 03:38:52;;;;;;;2.95;2.28;;;;;;;;;;5036803;28;20049;-71
2022/08/04 03:42:13;;;;;;;3.42;2.50;;;;;;;;;;5039362;28;20045;-69
2022/08/04 03:45:04;;;;;;;4.47;2.38;;;;;;;;;;4929327;28;20055;-70
2022/08/04 03:47:47;;;;;;;3.70;2.47;;;;;;;;;;5037046;28;20110;-70
2022/08/04 03:50:38;;;;;;;5.57;2.50;;;;;;;;;;5039025;28;20107;-70
2022/08/04 03:53:25;;;;;;;4.65;2.50;;;;;;;;;;4992796;28;20455;-72
2022/08/04 03:56:38;;;;;;;3.25;2.15;;;;;;;;;;5021968;28;20056;-71
2022/08/04 03:59:22;;;;;;;2.85;2.28;;;;;;;;;;5018297;28;20045;-70
2022/08/04 04:01:54;;;;;;;3.65;2.40;;;;;;;;;;5019868;28;20132;-70
2022/08/04 04:04:50;;;;;;;5.38;2.22;;;;;;;;;;5040067;28;20052;-70
2022/08/04 04:07:34;;;;;;;7.15;2.70;;;;;;;;;;5038884;28;20076;-71
2022/08/04 04:10:23;;;;;;;2.40;2.17;;;;;;;;;;5022227;28;21091;-70
2022/08/04 04:12:48;;;;;;;4.55;2.50;;;;;;;;;;5038098;28;20044;-73
2022/08/04 04:15:35;;;;;;;5.30;2.85;;;;;;;;;;5013997;28;20080;-71
2022/08/04 04:18:19;;;;;;;3.03;2.20;;;;;;;;;;5002339;28;20099;-73
2022/08/04 04:20:53;;;;;;;5.03;2.40;;;;;;;;;;5039528;28;20045;-69
2022/08/04 04:23:51;;;;;;;3.25;2.25;;;;;;;;;;5020938;28;20052;-74
2022/08/04 04:26:19;;;;;;;2.50;2.30;;;;;;;;;;5039239;28;20057;-71
2022/08/04 04:29:22;;;;;;;5.90;2.20;;;;;;;;;;5039509;28;20041;-70
2022/08/04 04:32:08;;;;;;;2.50;2.10;;;;;;;;;;5019527;28;20625;-73
2022/08/04 04:34:42;;;;;;;4.32;2.42;;;;;;;;;;5021015;28;20060;-72
2022/08/04 04:37:29;;;;;;;4.03;2.50;;;;;;;;;;5033286;28;20493;-69
2022/08/04 04:40:10;;;;;;;8.43;2.67;;;;;;;;;;5005659;28;20414;-70
2022/08/04 04:43:12;;;;;;;4.40;2.50;;;;;;;;;;5038390;28;20051;-69
2022/08/04 04:45:56;;;;;;;3.65;2.22;;;;;;;;;;4964384;28;20063;-70
2022/08/04 04:48:40;;;;;;;2.65;2.45;;;;;;;;;;5037900;28;20073;-73
2022/08/04 04:51:36;;;;;;;2.67;2.42;;;;;;;;;;5038188;28;20088;-69
2022/08/04 04:54:07;;;;;;;2.40;2.20;;;;;;;;;;5020846;28;20055;-71
2022/08/04 04:56:52;;;;;;;3.97;2.50;;;;;;;;;;5038388;28;20042;-67
2022/08/04 04:59:26;;;;;;;5.32;2.40;;;;;;;;;;5018202;28;20523;-70
2022/08/04 05:02:12;;;;;;;2.40;2.20;;;;;;;;;;5038499;28;20566;-70
2022/08/04 05:04:43;;;;;;;3.35;2.50;;;;;;;;;;4991769;28;20037;-69
2022/08/04 05:07:42;;;;;;;3.20;2.40;;;;;;;;;;5041108;28;20040;-70
2022/08/04 05:10:30;;;;;;;2.33;2.13;;;;;;;;;;5026532;28;20074;-72
2022/08/04 05:13:13;;;;;;;3.33;2.50;;;;;;;;;;5041970;28;20052;-70
2022/08/04 05:15:43;;;;;;;3.90;2.20;;;;;;;;;;5036353;28;20069;-70
2022/08/04 05:18:14;;;;;;;4.30;2.40;;;;;;;;;;5025334;28;20048;-71
2022/08/04 05:20:45;;;;;;;4.20;2.20;;;;;;;;;;5039280;28;21112;-71
2022/08/04 05:23:39;;;;;;;3.38;2.15;;;;;;;;;;5039012;28;20064;-71
2022/08/04 05:26:11;;;;;;;3.13;2.92;;;;;;;;;;5018635;28;20076;-72
2022/08/04 05:28:41;;;;;;;4.93;2.05;;;;;;;;;;5038401;28;20124;-72
2022/08/04 05:31:19;;;;;;;4.30;2.25;;;;;;;;;;5040228;28;20041;-71
2022/08/04 05:34:02;;;;;;;2.30;2.10;;;;;;;;;;5022495;28;20132;-71
2022/08/04 05:36:38;;;;;;;2.90;2.58;;;;;;;;;;5040546;28;20122;-71
2022/08/04 05:39:05;;;;;;;5.55;2.30;;;;;;;;;;5039880;28;20136;-70
2022/08/04 05:41:32;;;;;;;4.68;2.55;;;;;;;;;;5040743;28;20114;-72
2022/08/04 05:43:59;;;;;;;5.15;2.30;;;;;;;;;;5041501;28;20144;-70
2022/08/04 05:46:27;;;;;;;4.07;2.38;;;;;;;;;;5041109;28;20044;-71
2022/08/04 05:48:53;;;;;;;3.40;2.30;;;;;;;;;;5041833;28;20044;-72
2022/08/04 05:51:20;;;;;;;3.65;2.13;;;;;;;;;;5040486;28;20049;-71
2022/08/04 05:53:46;;;;;;;4.78;2.70;;;;;;;;;;5041328;28;20049;-73
2022/08/04 05:56:14;;;;;;;4.50;2.50;;;;;;;;;;5040905;28;20060;-70
2022/08/04 05:58:40;;;;;;;7.43;2.47;;;;;;;;;;5042039;28;20083;-71
2022/08/04 06:01:07;;;;;;;5.63;2.67;;;;;;;;;;5040916;28;20410;-71
2022/08/04 06:03:34;;;;;;;6.10;2.30;;;;;;;;;;5040710;28;20081;-72
2022/08/04 06:06:00;;;;;;;14.32;2.67;;;;;;;;;;5039226;28;20067;-71
2022/08/04 06:08:28;;;;;;;7.72;2.40;;;;;;;;;;5040613;28;20518;-72
2022/08/04 06:10:57;;;;;;;6.47;2.80;;;;;;;;;;5023368;28;20090;-71
2022/08/04 06:13:29;;;;;;;6.15;2.67;;;;;;;;;;5038923;28;20053;-71
2022/08/04 06:15:57;;;;;;;3.00;2.50;;;;;;;;;;5040325;28;20049;-72
2022/08/04 06:18:27;;;;;;;3.33;2.42;;;;;;;;;;5041175;28;20166;-70
2022/08/04 06:20:55;;;;;;;2.85;2.30;;;;;;;;;;5040403;28;20453;-71
2022/08/04 06:23:22;;;;;;;3.33;2.30;;;;;;;;;;5037382;28;20110;-71
2022/08/04 06:25:53;;;;;;;2.60;2.40;;;;;;;;;;5035687;28;20852;-73
2022/08/04 06:28:20;;;;;;;5.28;2.20;;;;;;;;;;5041410;28;20040;-69
2022/08/04 06:30:48;;;;;;;5.47;2.40;;;;;;;;;;5040286;28;20110;-70
2022/08/04 06:33:26;;;;;;;2.78;2.42;;;;;;;;;;5041121;28;20400;-72
2022/08/04 06:35:54;;;;;;;3.40;2.38;;;;;;;;;;5006824;28;20132;-69
2022/08/04 06:38:24;;;;;;;4.03;2.30;;;;;;;;;;5036270;28;20095;-70
2022/08/04 06:40:50;;;;;;;2.83;2.30;;;;;;;;;;5036341;28;20083;-72
2022/08/04 06:43:16;;;;;;;4.22;2.28;;;;;;;;;;5035360;28;20689;-74
2022/08/04 06:45:43;;;;;;;2.45;2.20;;;;;;;;;;5009546;28;20058;-70
2022/08/04 06:48:11;;;;;;;4.47;2.42;;;;;;;;;;5018239;28;20059;-73
2022/08/04 06:50:38;;;;;;;2.28;2.08;;;;;;;;;;5035726;28;20057;-75
2022/08/04 06:53:04;;;;;;;3.53;2.45;;;;;;;;;;5036211;28;20145;-71
2022/08/04 06:55:30;;;;;;;4.80;2.10;;;;;;;;;;5017120;28;20124;-72
2022/08/04 06:57:57;;;;;;;5.32;2.38;;;;;;;;;;5035352;28;20044;-72
2022/08/04 07:00:24;;;;;;;3.70;1.90;;;;;;;;;;5036045;28;20053;-69
2022/08/04 07:02:51;;;;;;;2.45;2.13;;;;;;;;;;5035798;28;20526;-70
2022/08/04 07:05:18;;;;;;;2.28;2.15;;;;;;;;;;5035401;28;20063;-72
2022/08/04 07:07:44;;;;;;;2.05;1.95;;;;;;;;;;5035245;28;20045;-74
2022/08/04 07:10:11;;;;;;;6.10;2.58;;;;;;;;;;5036114;28;20396;-71
2022/08/04 07:12:38;;;;;;;4.53;2.13;;;;;;;;;;5035701;28;20041;-70
2022/08/04 07:15:05;;;;;;;2.35;2.13;;;;;;;;;;5034920;28;20048;-71
2022/08/04 07:17:32;;;;;;;4.40;2.40;;;;;;;;;;5034879;28;20053;-72
2022/08/04 07:19:58;;;;;;;4.40;2.50;;;;;;;;;;5034881;28;20720;-75
2022/08/04 07:22:26;;;;;;;9.07;2.20;;;;;;;;;;5035408;28;20515;-72
2022/08/04 07:24:55;;;;;;;11.90;2.20;;;;;;;;;;5035158;28;20841;-69
2022/08/04 07:27:21;;;;;;;10.35;2.60;;;;;;;;;;5035015;28;20052;-68
2022/08/04 07:29:47;;;;;;;6.53;2.20;;;;;;;;;;5034727;28;20191;-70
2022/08/04 07:32:14;;;;;;;2.67;1.98;;;;;;;;;;5034854;28;20574;-69
2022/08/04 07:34:41;;;;;;;4.45;2.28;;;;;;;;;;5037851;28;20098;-72
2022/08/04 07:37:06;;;;;;;2.53;2.33;;;;;;;;;;5037804;28;20045;-72
2022/08/04 07:39:32;;;;;;;4.55;2.47;;;;;;;;;;5038453;28;20036;-72
2022/08/04 07:42:00;;;;;;;3.13;2.28;;;;;;;;;;5019910;28;20127;-74
2022/08/04 07:44:26;;;;;;;4.45;2.38;;;;;;;;;;5038254;28;20099;-73
2022/08/04 07:46:52;;;;;;;6.35;2.20;;;;;;;;;;5037900;28;20049;-71
2022/08/04 07:49:19;;;;;;;2.15;2.00;;;;;;;;;;5037517;28;20049;-72
2022/08/04 07:51:45;;;;;;;6.93;2.47;;;;;;;;;;5019109;28;20048;-75
2022/08/04 07:54:11;;;;;;;5.82;2.45;;;;;;;;;;5037183;28;20045;-69
2022/08/04 07:56:39;;;;;;;5.20;2.20;;;;;;;;;;5038867;28;20041;-69
2022/08/04 07:59:05;;;;;;;5.70;2.08;;;;;;;;;;5038028;28;20095;-73
2022/08/04 08:01:33;;;;;;;2.80;1.90;;;;;;;;;;5038120;28;20040;-70
2022/08/04 08:03:59;;;;;;;3.88;2.03;;;;;;;;;;5037179;28;20049;-73
2022/08/04 08:06:28;;;;;;;5.85;2.30;;;;;;;;;;5037963;28;20098;-72
2022/08/04 08:08:54;;;;;;;7.35;2.10;;;;;;;;;;5020939;28;20052;-72
2022/08/04 08:11:20;;;;;;;2.60;1.77;;;;;;;;;;5037625;28;20056;-74
2022/08/04 08:13:45;;;;;;;2.80;2.45;;;;;;;;;;5037351;28;20042;-71
2022/08/04 08:16:12;;;;;;;3.53;2.00;;;;;;;;;;5038034;28;20064;-71
2022/08/04 08:18:37;;;;;;;7.55;2.10;;;;;;;;;;5038511;28;20048;-71
2022/08/04 08:21:03;;;;;;;4.80;2.08;;;;;;;;;;5038786;28;20040;-70
2022/08/04 08:23:30;;;;;;;2.28;1.95;;;;;;;;;;5037703;28;20048;-70
2022/08/04 08:25:57;;;;;;;4.07;2.15;;;;;;;;;;5037343;28;20048;-70
2022/08/04 08:28:23;;;;;;;5.40;2.35;;;;;;;;;;5038337;28;20053;-71
2022/08/04 08:30:49;;;;;;;2.72;2.10;;;;;;;;;;5037967;28;20153;-72
2022/08/04 08:33:15;;;;;;;4.07;2.10;;;;;;;;;;5037438;28;20056;-70
2022/08/04 08:35:53;;;;;;;2.83;2.10;;;;;;;;;;5036337;28;20144;-73
2022/08/04 08:38:27;;;;;;;3.47;2.15;;;;;;;;;;5040370;28;20159;-71
2022/08/04 08:41:26;;;;;;;5.68;2.13;;;;;;;;;;5042338;28;20063;-71
2022/08/04 08:44:16;;;;;;;2.25;2.10;;;;;;;;;;5014639;28;20053;-70
2022/08/04 08:47:14;;;;;;;2.15;1.90;;;;;;;;;;5040836;28;20053;-73
2022/08/04 08:49:59;;;;;;;2.10;2.00;;;;;;;;;;5022085;28;20113;-70
2022/08/04 08:52:51;;;;;;;3.65;1.88;;;;;;;;;;5042488;28;20063;-72
2022/08/04 08:55:25;;;;;;;3.03;2.00;;;;;;;;;;5042057;28;20053;-70
2022/08/04 08:58:13;;;;;;;2.05;1.85;;;;;;;;;;5006891;28;20068;-73
2022/08/04 09:01:08;;;;;;;3.80;2.30;;;;;;;;;;5041084;28;20044;-70
2022/08/04 09:04:05;;;;;;;4.65;2.30;;;;;;;;;;5041209;28;20052;-70
2022/08/04 09:07:05;;;;;;;4.25;2.13;;;;;;;;;;5040921;28;20059;-70
2022/08/04 09:10:01;;;;;;;2.83;2.22;;;;;;;;;;4940310;29;20054;-69
2022/08/04 09:12:40;;;;;;;3.25;2.00;;;;;;;;;;5040089;28;20056;-71
2022/08/04 09:15:38;;;;;;;2.40;2.17;;;;;;;;;;5040367;28;20053;-69
2022/08/04 09:18:13;;;;;;;2.28;2.00;;;;;;;;;;5024036;28;20087;-73
2022/08/04 09:20:42;;;;;;;2.33;1.92;;;;;;;;;;5040947;28;20180;-69
2022/08/04 09:23:29;;;;;;;3.00;2.30;;;;;;;;;;5041008;28;20091;-70
2022/08/04 09:26:18;;;;;;;3.58;1.80;;;;;;;;;;5022950;28;20045;-70
2022/08/04 09:28:53;;;;;;;1.85;1.73;;;;;;;;;;5042544;28;20479;-71
2022/08/04 09:31:23;;;;;;;3.47;2.10;;;;;;;;;;5023229;28;20053;-72
2022/08/04 09:34:03;;;;;;;6.83;2.20;;;;;;;;;;5042310;28;20506;-70
2022/08/04 09:36:38;;;;;;;7.60;2.40;;;;;;;;;;5042186;28;20057;-72
2022/08/04 09:39:28;;;;;;;6.45;2.40;;;;;;;;;;5042795;28;20289;-70
2022/08/04 09:42:15;;;;;;;5.60;2.08;;;;;;;;;;5021463;28;20491;-71
2022/08/04 09:44:59;;;;;;;2.00;1.73;;;;;;;;;;5042491;28;20056;-71
2022/08/04 09:47:42;;;;;;;3.60;2.15;;;;;;;;;;5041297;28;20033;-71
2022/08/04 09:50:28;;;;;;;8.25;2.05;;;;;;;;;;5042677;28;20139;-71
2022/08/04 09:52:56;;;;;;;3.88;2.10;;;;;;;;;;5041100;28;20128;-71
2022/08/04 09:55:36;;;;;;;2.20;1.95;;;;;;;;;;5041097;28;20411;-69
2022/08/04 09:58:12;;;;;;;1.98;1.88;;;;;;;;;;5041973;28;20040;-71
2022/08/04 10:01:00;;;;;;;4.28;1.90;;;;;;;;;;5041860;28;20499;-70
2022/08/04 10:03:31;;;;;;;2.47;1.83;;;;;;;;;;5040452;28;20991;-71
2022/08/04 10:06:14;;;;;;;2.28;2.03;;;;;;;;;;5041353;28;20053;-72
2022/08/04 10:08:58;;;;;;;2.00;1.90;;;;;;;;;;5041359;28;20410;-72
2022/08/04 10:11:47;;;;;;;4.88;1.90;;;;;;;;;;5041162;28;20068;-71
2022/08/04 10:14:34;;;;;;;3.60;1.90;;;;;;;;;;5041278;28;20545;-70
2022/08/04 10:17:15;;;;;;;5.13;1.63;;;;;;;;;;5041115;28;20056;-70
2022/08/04 10:19:41;;;;;;;2.83;2.10;;;;;;;;;;5040751;28;20053;-70
2022/08/04 10:22:32;;;;;;;1.70;1.60;;;;;;;;;;5041618;28;20097;-70
2022/08/04 10:25:16;;;;;;;;;;;;;;;;;;5042559;28;20056;-71
2022/08/04 10:27:59;;;;;;;3.95;1.90;;;;;;;;;;5040870;28;19928;-71
2022/08/04 10:30:27;;;;;;;2.85;1.67;;;;;;;;;;5042120;28;20060;-70
2022/08/04 10:32:55;;;;;;;3.70;1.85;;;;;;;;;;5041381;28;20419;-70
2022/08/04 10:35:27;;;;;;;3.45;1.58;;;;;;;;;;5040979;28;20569;-71
2022/08/04 10:37:55;;;;;;;1.98;1.42;;;;;;;;;;5040512;28;20041;-73
2022/08/04 10:40:44;;;;;;;2.63;1.80;;;;;;;;;;5040659;28;20052;-71
2022/08/04 10:43:27;;;;;;;1.80;1.70;;;;;;;;;;5040943;28;20053;-72
2022/08/04 10:46:06;;;;;;;2.15;1.77;;;;;;;;;;5021403;28;20047;-71
2022/08/04 10:48:37;;;;;;;4.25;1.70;;;;;;;;;;5039984;28;20052;-70
2022/08/04 10:51:43;;;;;;;1.60;1.50;;;;;;;;;;5040789;28;20093;-70
2022/08/04 10:54:26;;;;;;;3.63;1.63;;;;;;;;;;5011493;28;20063;-73
2022/08/04 10:57:00;;;;;;;3.80;1.60;;;;;;;;;;5040686;28;20040;-72
2022/08/04 10:59:33;;;;;;;4.30;1.70;;;;;;;;;;5038829;28;20049;-72
2022/08/04 11:02:17;;;;;;;1.60;1.50;;;;;;;;;;5040494;28;20041;-72
2022/08/04 11:04:47;;;;;;;2.88;1.70;;;;;;;;;;5040670;28;20118;-71
2022/08/04 11:07:15;;;;;;;2.53;1.60;;;;;;;;;;5040666;28;20048;-71
2022/08/04 11:09:43;;;;;;;6.05;1.75;;;;;;;;;;5038799;28;20045;-71
2022/08/04 11:12:15;;;;;;;2.42;1.55;;;;;;;;;;5022479;28;20085;-70
2022/08/04 11:14:50;;;;;;;2.33;1.70;;;;;;;;;;5040303;28;20060;-70
2022/08/04 11:17:26;;;;;;;5.88;2.00;;;;;;;;;;5040392;28;20040;-71
2022/08/04 11:20:02;;;;;;;4.97;1.60;;;;;;;;;;5014171;28;20138;-68
2022/08/04 11:22:28;;;;;;;3.80;1.65;;;;;;;;;;5039328;28;20083;-70
2022/08/04 11:25:20;;;;;;;1.67;1.58;;;;;;;;;;5039940;28;20049;-71
2022/08/04 11:28:02;;;;;;;2.72;1.50;;;;;;;;;;5040080;28;20045;-70
2022/08/04 11:30:39;;;;;;;1.98;1.60;;;;;;;;;;5039201;28;20049;-69
2022/08/04 11:33:19;;;;;;;2.85;1.40;;;;;;;;;;5039519;28;20453;-72
2022/08/04 11:36:23;;;;;;;1.52;1.42;;;;;;;;;;5039593;28;20037;-68
2022/08/04 11:39:17;;;;;;;1.65;1.55;;;;;;;;;;4940063;28;20067;-68
2022/08/04 11:41:51;;;;;;;1.77;1.48;;;;;;;;;;4992879;28;20040;-70
2022/08/04 11:44:25;;;;;;;2.10;1.50;;;;;;;;;;5038279;28;20519;-68
2022/08/04 11:46:55;;;;;;;3.72;1.55;;;;;;;;;;5039960;28;20045;-70
2022/08/04 11:50:08;;;;;;;3.30;1.63;;;;;;;;;;5039649;28;20617;-71
2022/08/04 11:52:36;;;;;;;1.83;1.73;;;;;;;;;;4993728;28;20045;-68
2022/08/04 11:55:07;;;;;;;1.92;1.52;;;;;;;;;;5038386;28;20057;-68
2022/08/04 12:19:30;;;;;;;2.35;1.70;;;;;;;;;;5104318;27;20442;-72
2022/08/04 12:22:03;;;;;;;3.38;1.58;;;;;;;;;;5105589;27;20093;-70
2022/08/04 12:24:43;;;;;;;1.90;1.50;;;;;;;;;;5105984;28;20035;-72
2022/08/04 12:27:23;;;;;;;4.72;1.58;;;;;;;;;;5091427;28;20561;-71
2022/08/04 12:29:50;;;;;;;2.97;1.70;;;;;;;;;;5106313;28;20043;-72
2022/08/04 12:32:30;;;;;;;3.63;1.40;;;;;;;;;;5085978;28;20102;-72
2022/08/04 12:35:19;;;;;;;5.18;2.00;;;;;;;;;;5065580;28;20051;-71
2022/08/04 12:38:01;;;;;;;2.15;1.67;;;;;;;;;;5059623;28;20099;-70
2022/08/04 12:40:32;;;;;;;6.20;1.73;;;;;;;;;;5065768;28;20102;-71
2022/08/04 12:43:18;;;;;;;2.33;1.40;;;;;;;;;;5065785;28;20044;-70
2022/08/04 12:46:01;;;;;;;1.60;1.50;;;;;;;;;;5071806;28;20048;-71
2022/08/04 12:48:27;;;;;;;6.07;1.50;;;;;;;;;;5106273;28;20222;-71
2022/08/04 12:50:55;;;;;;;4.93;1.40;;;;;;;;;;5106220;28;20119;-71
2022/08/04 12:53:31;;;;;;;2.00;1.75;;;;;;;;;;5105286;28;20058;-71
2022/08/04 12:55:57;;;;;;;6.20;1.45;;;;;;;;;;5076831;28;20045;-70
2022/08/04 12:58:24;;;;;;;2.60;1.73;;;;;;;;;;5065474;28;20053;-70
2022/08/04 13:00:54;;;;;;;2.35;1.50;;;;;;;;;;5071754;28;20047;-71
2022/08/04 13:03:23;;;;;;;2.60;1.60;;;;;;;;;;5085341;28;20041;-71
2022/08/04 13:05:52;;;;;;;3.35;1.40;;;;;;;;;;5078425;28;20132;-69
2022/08/04 13:08:19;;;;;;;4.63;1.20;;;;;;;;;;5065124;28;20051;-71
2022/08/04 13:10:48;;;;;;;3.25;1.70;;;;;;;;;;5065195;28;20056;-71
2022/08/04 13:13:19;;;;;;;4.25;1.35;;;;;;;;;;5057339;28;20152;-71
2022/08/04 13:15:59;;;;;;;2.25;1.25;;;;;;;;;;5056637;28;20048;-71
2022/08/04 13:18:27;;;;;;;1.95;1.45;;;;;;;;;;5054679;28;20135;-70
2022/08/04 13:20:53;;;;;;;5.45;1.30;;;;;;;;;;5051554;28;20041;-71
2022/08/04 13:23:19;;;;;;;4.97;1.48;;;;;;;;;;5051720;28;20053;-70
2022/08/04 13:25:49;;;;;;;2.10;1.70;;;;;;;;;;5050832;28;20101;-71
2022/08/04 13:28:20;;;;;;;3.90;1.63;;;;;;;;;;5051581;28;20083;-70
2022/08/04 13:30:51;;;;;;;5.53;1.60;;;;;;;;;;5057404;28;20064;-72
2022/08/04 13:33:18;;;;;;;1.92;1.50;;;;;;;;;;5082051;28;20572;-72
2022/08/04 13:35:45;;;;;;;2.28;1.75;;;;;;;;;;5080390;28;20131;-72
2022/08/04 13:38:13;;;;;;;4.97;1.50;;;;;;;;;;5082799;28;20109;-71
2022/08/04 13:40:40;;;;;;;4.20;1.45;;;;;;;;;;5051321;28;20037;-70
2022/08/04 13:43:08;;;;;;;4.85;1.60;;;;;;;;;;5051412;28;20056;-70
2022/08/04 13:45:36;;;;;;;3.33;1.20;;;;;;;;;;5054522;28;20051;-71
2022/08/04 13:48:02;;;;;;;5.63;1.60;;;;;;;;;;5077291;28;20040;-70
2022/08/04 13:50:29;;;;;;;8.27;1.60;;;;;;;;;;5076318;28;20044;-72
2022/08/04 13:52:59;;;;;;;2.17;1.60;;;;;;;;;;5077934;28;20058;-71
2022/08/04 13:55:29;;;;;;;1.63;1.30;;;;;;;;;;5080825;28;20052;-71
2022/08/04 13:58:00;;;;;;;4.30;1.38;;;;;;;;;;5081334;28;20048;-70
2022/08/04 14:00:41;;;;;;;7.55;1.42;;;;;;;;;;5075299;28;20500;-71
2022/08/04 14:03:08;;;;;;;2.22;1.70;;;;;;;;;;5055910;28;20044;-71
2022/08/04 14:05:33;;;;;;;1.50;1.40;;;;;;;;;;5050116;28;20612;-71
2022/08/04 14:08:14;;;;;;;5.28;1.50;;;;;;;;;;5051024;28;20041;-70
2022/08/04 14:10:40;;;;;;;3.67;1.67;;;;;;;;;;5051128;28;20150;-70
2022/08/04 14:13:06;;;;;;;2.10;1.67;;;;;;;;;;5052619;28;20056;-71
2022/08/04 14:15:34;;;;;;;4.63;1.55;;;;;;;;;;5053564;28;20470;-70
2022/08/04 14:18:26;;;;;;;2.47;1.73;;;;;;;;;;5070856;28;20550;-70
2022/08/04 14:21:11;;;;;;;3.33;1.42;;;;;;;;;;5049598;28;20033;-71
2022/08/04 14:23:44;;;;;;;2.55;1.38;;;;;;;;;;5053018;28;20132;-69
2022/08/04 14:26:31;;;;;;;6.10;1.63;;;;;;;;;;5055105;28;20068;-71
2022/08/04 14:29:08;;;;;;;5.72;1.67;;;;;;;;;;5050562;28;20125;-70
2022/08/04 14:31:33;;;;;;;2.13;1.50;;;;;;;;;;5062212;28;20044;-69
2022/08/04 14:33:59;;;;;;;5.53;1.65;;;;;;;;;;5065108;28;20045;-70
2022/08/04 14:36:25;;;;;;;1.98;1.40;;;;;;;;;;5049938;28;20049;-69
2022/08/04 14:38:56;;;;;;;4.10;1.83;;;;;;;;;;5050392;28;20518;-70
2022/08/04 14:41:42;;;;;;;4.07;1.90;;;;;;;;;;5049975;28;20037;-71
2022/08/04 14:44:07;;;;;;;5.00;1.55;;;;;;;;;;5049651;28;20499;-69
2022/08/04 14:46:33;;;;;;;2.20;1.65;;;;;;;;;;5062983;28;20040;-69
2022/08/04 14:49:08;;;;;;;7.43;1.50;;;;;;;;;;5087540;28;20040;-69
2022/08/04 14:51:41;;;;;;;5.00;1.58;;;;;;;;;;5089627;28;20032;-69
2022/08/04 14:54:09;;;;;;;2.05;1.60;;;;;;;;;;5089631;28;20498;-69
2022/08/04 14:56:34;;;;;;;5.35;1.50;;;;;;;;;;5066197;28;20059;-70
2022/08/04 14:59:07;;;;;;;1.52;1.40;;;;;;;;;;5049853;28;20041;-68
2022/08/04 15:01:34;;;;;;;5.40;1.50;;;;;;;;;;5061378;28;20410;-69
2022/08/04 15:04:01;;;;;;;3.65;1.40;;;;;;;;;;5069691;28;20047;-69
2022/08/04 15:06:29;;;;;;;6.32;1.70;;;;;;;;;;5068652;28;20113;-70
2022/08/04 15:09:00;;;;;;;6.85;1.58;;;;;;;;;;5062415;28;20128;-69
2022/08/04 15:11:26;;;;;;;3.25;1.30;;;;;;;;;;5048934;28;20041;-70
2022/08/04 15:13:53;;;;;;;3.25;1.70;;;;;;;;;;5047365;28;20099;-69
2022/08/04 15:16:20;;;;;;;5.25;1.92;;;;;;;;;;5057923;28;20038;-70
2022/08/04 15:18:45;;;;;;;5.68;1.50;;;;;;;;;;5053253;28;20506;-70
2022/08/04 15:21:11;;;;;;;4.00;1.60;;;;;;;;;;5047701;28;20033;-69
2022/08/04 15:23:37;;;;;;;2.88;1.60;;;;;;;;;;5046137;28;20135;-69
2022/08/04 15:26:04;;;;;;;4.15;1.50;;;;;;;;;;5047559;28;20040;-71
2022/08/04 15:28:31;;;;;;;4.57;1.40;;;;;;;;;;5048925;28;20049;-70
2022/08/04 15:31:00;;;;;;;5.22;1.60;;;;;;;;;;5052325;28;20041;-69
2022/08/04 15:33:27;;;;;;;2.85;1.52;;;;;;;;;;5048749;28;20419;-70
2022/08/04 15:36:21;;;;;;;6.68;1.60;;;;;;;;;;5048467;28;20049;-69
2022/08/04 15:39:02;;;;;;;2.42;1.80;;;;;;;;;;5049491;28;20045;-69
2022/08/04 15:41:37;;;;;;;5.97;1.70;;;;;;;;;;5048785;28;20443;-69
2022/08/04 15:44:47;;;;;;;4.72;1.67;;;;;;;;;;5069440;28;20045;-68
2022/08/04 15:47:14;;;;;;;5.38;1.73;;;;;;;;;;5069494;28;20490;-69
2022/08/04 15:49:41;;;;;;;1.60;1.40;;;;;;;;;;5067398;28;20060;-68
2022/08/04 15:52:15;;;;;;;1.67;1.48;;;;;;;;;;5052226;28;20048;-68
2022/08/04 15:54:41;;;;;;;7.85;1.90;;;;;;;;;;5048991;28;20092;-70